createdAt,value
2019-01-30T00:01:20.394Z,7.97
2019-01-30T00:03:47.732Z,8.93
2019-01-30T00:06:15.053Z,7.83
2019-01-30T00:08:42.531Z,8.10
2019-01-30T00:11:09.906Z,8.80
2019-01-30T00:13:37.260Z,8.30
2019-01-30T00:16:04.736Z,8.00
2019-01-30T00:18:32.171Z,8.33
2019-01-30T00:20:59.935Z,8.78
2019-01-30T00:23:27.274Z,8.63
2019-01-30T00:25:54.721Z,9.80
2019-01-30T00:28:22.374Z,9.75
2019-01-30T00:30:49.822Z,9.85
2019-01-30T00:33:17.153Z,8.48
2019-01-30T00:35:44.567Z,9.28
2019-01-30T00:38:11.892Z,8.95
2019-01-30T00:40:39.730Z,8.50
2019-01-30T00:43:07.370Z,9.70
2019-01-30T00:45:34.769Z,9.40
2019-01-30T00:48:02.088Z,9.73
2019-01-30T00:50:29.428Z,10.30
2019-01-30T00:52:56.873Z,10.30
2019-01-30T00:55:24.208Z,11.25
2019-01-30T00:57:51.551Z,9.48
2019-01-30T01:00:19.807Z,10.13
2019-01-30T01:02:47.214Z,9.55
2019-01-30T01:05:14.984Z,10.78
2019-01-30T01:07:42.889Z,9.45
2019-01-30T01:10:11.389Z,11.28
2019-01-30T01:12:38.794Z,11.38
2019-01-30T01:15:08.473Z,10.72
2019-01-30T01:17:35.859Z,12.28
2019-01-30T01:20:04.825Z,10.68
2019-01-30T01:22:32.108Z,10.80
2019-01-30T01:24:59.460Z,10.80
2019-01-30T01:27:26.870Z,10.35
2019-01-30T01:29:54.276Z,11.10
2019-01-30T01:32:21.571Z,10.25
2019-01-30T01:34:49.265Z,9.95
2019-01-30T01:37:16.635Z,9.40
2019-01-30T01:39:44.026Z,9.35
2019-01-30T01:42:11.349Z,9.08
2019-01-30T01:44:38.633Z,10.30
2019-01-30T01:47:05.943Z,9.15
2019-01-30T01:49:33.265Z,12.07
2019-01-30T01:52:00.671Z,10.35
2019-01-30T01:54:27.974Z,9.80
2019-01-30T01:56:55.220Z,11.03
2019-01-30T01:59:22.551Z,10.25
2019-01-30T02:01:49.956Z,10.90
2019-01-30T02:04:17.269Z,9.78
2019-01-30T02:06:44.608Z,10.40
2019-01-30T02:09:11.965Z,9.43
2019-01-30T02:11:39.379Z,10.90
2019-01-30T02:14:06.696Z,10.08
2019-01-30T02:16:34.009Z,10.53
2019-01-30T02:19:01.337Z,10.68
2019-01-30T02:21:28.735Z,12.30
2019-01-30T02:23:56.055Z,10.68
2019-01-30T02:26:23.463Z,10.93
2019-01-30T02:28:50.748Z,11.80
2019-01-30T02:31:18.174Z,10.45
2019-01-30T02:33:45.460Z,9.93
2019-01-30T02:36:12.883Z,11.33
2019-01-30T02:38:40.205Z,9.95
2019-01-30T02:41:07.584Z,10.00
2019-01-30T02:43:34.983Z,10.93
2019-01-30T02:46:02.306Z,9.95
2019-01-30T02:48:29.627Z,10.53
2019-01-30T02:50:56.914Z,11.05
2019-01-30T02:53:24.153Z,11.28
2019-01-30T02:55:51.533Z,10.63
2019-01-30T02:58:18.876Z,10.45
2019-01-30T03:00:46.274Z,11.70
2019-01-30T03:03:13.629Z,10.48
2019-01-30T03:05:40.941Z,11.00
2019-01-30T03:08:08.335Z,11.80
2019-01-30T03:10:35.665Z,10.78
2019-01-30T03:13:03.264Z,11.63
2019-01-30T03:15:30.679Z,11.48
2019-01-30T03:17:58.087Z,10.70
2019-01-30T03:20:25.898Z,10.55
2019-01-30T03:22:53.379Z,11.57
2019-01-30T03:25:21.879Z,10.95
2019-01-30T03:27:49.202Z,13.00
2019-01-30T03:30:22.520Z,12.65
2019-01-30T03:32:49.843Z,12.10
2019-01-30T03:35:17.266Z,12.10
2019-01-30T03:37:44.588Z,11.73
2019-01-30T03:40:13.929Z,12.10
2019-01-30T03:42:41.340Z,12.95
2019-01-30T03:45:09.900Z,11.22
2019-01-30T03:47:37.307Z,11.50
2019-01-30T03:50:06.208Z,12.58
2019-01-30T03:52:33.671Z,12.47
2019-01-30T03:55:01.047Z,12.80
2019-01-30T03:57:29.074Z,12.65
2019-01-30T03:59:56.649Z,12.68
2019-01-30T04:02:24.016Z,13.70
2019-01-30T04:04:51.435Z,12.20
2019-01-30T04:07:18.739Z,12.90
2019-01-30T04:09:46.190Z,11.60
2019-01-30T04:12:13.565Z,12.58
2019-01-30T04:14:40.884Z,13.25
2019-01-30T04:17:08.278Z,12.30
2019-01-30T04:19:35.688Z,12.45
2019-01-30T04:22:03.087Z,12.60
2019-01-30T04:24:30.537Z,12.40
2019-01-30T04:26:57.820Z,12.85
2019-01-30T04:29:25.128Z,12.68
2019-01-30T04:31:52.383Z,12.18
2019-01-30T04:34:19.837Z,12.35
2019-01-30T04:36:47.235Z,12.40
2019-01-30T04:39:14.582Z,13.50
2019-01-30T04:41:42.003Z,12.68
2019-01-30T04:44:09.302Z,14.38
2019-01-30T04:46:36.584Z,11.78
2019-01-30T04:49:03.895Z,12.53
2019-01-30T04:51:31.331Z,12.95
2019-01-30T04:53:58.775Z,12.30
2019-01-30T04:56:26.146Z,11.75
2019-01-30T04:58:53.454Z,13.32
2019-01-30T05:01:21.074Z,12.50
2019-01-30T05:03:48.570Z,13.55
2019-01-30T05:06:15.964Z,12.60
2019-01-30T05:08:43.639Z,11.95
2019-01-30T05:11:10.977Z,13.13
2019-01-30T05:13:38.418Z,12.45
2019-01-30T05:16:06.122Z,12.30
2019-01-30T05:18:33.833Z,13.50
2019-01-30T05:21:01.259Z,13.30
2019-01-30T05:23:28.664Z,12.40
2019-01-30T05:25:56.057Z,13.95
2019-01-30T05:28:23.296Z,13.78
2019-01-30T05:30:50.779Z,13.00
2019-01-30T05:33:18.453Z,14.23
2019-01-30T05:35:45.757Z,14.05
2019-01-30T05:38:13.439Z,12.95
2019-01-30T05:40:40.867Z,12.55
2019-01-30T05:43:08.250Z,12.33
2019-01-30T05:45:35.609Z,13.28
2019-01-30T05:48:03.018Z,13.65
2019-01-30T05:50:30.388Z,12.63
2019-01-30T05:52:57.677Z,12.95
2019-01-30T05:55:24.975Z,12.78
2019-01-30T05:57:52.261Z,13.55
2019-01-30T06:00:27.121Z,12.63
2019-01-30T06:02:55.384Z,13.70
2019-01-30T06:05:22.830Z,13.10
2019-01-30T06:07:50.112Z,12.37
2019-01-30T06:10:17.408Z,13.35
2019-01-30T06:12:44.732Z,12.95
2019-01-30T06:15:12.643Z,13.13
2019-01-30T06:17:40.020Z,12.35
2019-01-30T06:20:10.459Z,12.23
2019-01-30T06:22:37.753Z,12.58
2019-01-30T06:25:05.702Z,12.30
2019-01-30T06:27:33.021Z,11.38
2019-01-30T06:30:00.454Z,13.40
2019-01-30T06:32:27.901Z,12.55
2019-01-30T06:34:56.748Z,13.13
2019-01-30T06:37:24.302Z,12.63
2019-01-30T06:39:51.636Z,12.75
2019-01-30T06:42:19.021Z,12.75
2019-01-30T06:44:46.437Z,13.18
2019-01-30T06:47:13.780Z,13.75
2019-01-30T06:49:41.100Z,12.33
2019-01-30T06:52:08.579Z,13.83
2019-01-30T06:54:36.022Z,13.90
2019-01-30T06:57:03.473Z,13.30
2019-01-30T06:59:30.861Z,12.60
2019-01-30T07:01:58.215Z,13.70
2019-01-30T07:04:25.609Z,12.73
2019-01-30T07:06:53.031Z,13.88
2019-01-30T07:09:20.494Z,13.32
2019-01-30T07:11:47.933Z,14.45
2019-01-30T07:14:15.437Z,13.05
2019-01-30T07:16:43.236Z,13.62
2019-01-30T07:19:10.667Z,13.70
2019-01-30T07:21:38.251Z,13.48
2019-01-30T07:24:05.741Z,13.90
2019-01-30T07:26:33.129Z,14.45
2019-01-30T07:29:00.732Z,14.20
2019-01-30T07:31:28.142Z,13.75
2019-01-30T07:33:55.790Z,14.38
2019-01-30T07:36:23.280Z,13.22
2019-01-30T07:38:50.898Z,13.83
2019-01-30T07:41:18.534Z,13.85
2019-01-30T07:43:45.973Z,15.43
2019-01-30T07:46:13.415Z,14.00
2019-01-30T07:48:40.983Z,12.23
2019-01-30T07:51:08.418Z,12.63
2019-01-30T07:53:35.841Z,13.15
2019-01-30T07:56:03.607Z,14.50
2019-01-30T07:58:30.979Z,13.28
2019-01-30T08:00:58.312Z,13.70
2019-01-30T08:03:25.738Z,14.00
2019-01-30T08:05:53.145Z,16.12
2019-01-30T08:08:20.466Z,14.05
2019-01-30T08:10:47.882Z,15.32
2019-01-30T08:13:15.245Z,14.98
2019-01-30T08:15:42.571Z,14.00
2019-01-30T08:18:10.025Z,12.55
2019-01-30T08:20:37.506Z,14.47
2019-01-30T08:23:05.184Z,12.45
2019-01-30T08:25:32.762Z,13.90
2019-01-30T08:28:00.491Z,13.98
2019-01-30T08:30:29.543Z,14.60
2019-01-30T08:33:04.622Z,14.33
2019-01-30T08:35:28.617Z,13.70
2019-01-30T08:37:55.965Z,14.53
2019-01-30T08:40:23.445Z,14.70
2019-01-30T08:42:52.285Z,14.63
2019-01-30T08:45:22.328Z,14.30
2019-01-30T08:47:49.643Z,13.80
2019-01-30T08:50:17.273Z,13.68
2019-01-30T08:52:44.591Z,12.33
2019-01-30T08:55:13.204Z,13.00
2019-01-30T08:57:40.541Z,14.00
2019-01-30T09:00:11.277Z,13.20
2019-01-30T09:02:38.673Z,14.00
2019-01-30T09:05:07.183Z,14.75
2019-01-30T09:07:43.959Z,13.25
2019-01-30T09:10:06.439Z,13.15
2019-01-30T09:12:34.066Z,13.15
2019-01-30T09:15:01.735Z,13.68
2019-01-30T09:17:29.136Z,14.15
2019-01-30T09:19:56.359Z,14.80
2019-01-30T09:22:23.666Z,14.33
2019-01-30T09:24:50.993Z,13.95
2019-01-30T09:27:18.304Z,12.43
2019-01-30T09:29:45.676Z,13.78
2019-01-30T09:32:13.062Z,13.43
2019-01-30T09:34:40.518Z,14.07
2019-01-30T09:37:08.227Z,16.40
2019-01-30T09:39:35.612Z,14.93
2019-01-30T09:42:03.035Z,14.63
2019-01-30T09:44:30.338Z,17.15
2019-01-30T09:46:58.124Z,18.12
2019-01-30T09:49:25.439Z,15.20
2019-01-30T09:51:52.760Z,13.98
2019-01-30T09:54:20.156Z,16.32
2019-01-30T09:56:47.613Z,14.05
2019-01-30T09:59:15.007Z,14.38
2019-01-30T10:01:42.440Z,14.60
2019-01-30T10:04:09.801Z,14.45
2019-01-30T10:06:37.249Z,13.60
2019-01-30T10:09:07.379Z,15.03
2019-01-30T10:11:34.710Z,13.20
2019-01-30T10:14:02.127Z,14.58
2019-01-30T10:16:29.544Z,13.05
2019-01-30T10:18:56.819Z,12.75
2019-01-30T10:21:24.171Z,13.85
2019-01-30T10:23:51.487Z,14.90
2019-01-30T10:26:18.904Z,14.38
2019-01-30T10:28:46.177Z,13.83
2019-01-30T10:31:13.426Z,14.70
2019-01-30T10:33:46.496Z,14.80
2019-01-30T10:36:10.119Z,12.68
2019-01-30T10:38:37.561Z,12.37
2019-01-30T10:41:04.967Z,12.55
2019-01-30T10:43:32.339Z,12.82
2019-01-30T10:45:59.744Z,13.08
2019-01-30T10:48:27.152Z,11.88
2019-01-30T10:50:54.540Z,12.05
2019-01-30T10:53:22.002Z,12.23
2019-01-30T10:55:49.411Z,12.00
2019-01-30T10:58:17.577Z,13.10
2019-01-30T11:00:47.419Z,11.40
2019-01-30T11:03:15.751Z,11.00
2019-01-30T11:05:44.411Z,10.50
2019-01-30T11:08:12.005Z,7.95
2019-01-30T11:10:39.319Z,7.85
2019-01-30T11:13:06.888Z,5.55
2019-01-30T11:15:34.308Z,2.02
2019-01-30T11:18:01.721Z,1.40
2019-01-30T11:20:29.258Z,1.20
2019-01-30T11:22:56.794Z,0.82
2019-01-30T11:25:26.835Z,0.85
2019-01-30T11:27:54.541Z,1.10
2019-01-30T11:30:22.261Z,1.10
2019-01-30T11:32:49.669Z,0.60
2019-01-30T11:35:17.037Z,0.80
2019-01-30T11:37:44.570Z,0.70
2019-01-30T11:40:14.008Z,0.60
2019-01-30T11:42:41.358Z,0.60
2019-01-30T11:45:15.181Z,0.50
2019-01-30T11:47:42.593Z,0.50
2019-01-30T11:50:10.713Z,0.55
2019-01-30T11:52:38.064Z,0.70
2019-01-30T11:55:06.976Z,0.95
2019-01-30T11:57:34.301Z,0.70
2019-01-30T12:00:01.913Z,0.88
2019-01-30T12:02:29.612Z,1.07
2019-01-30T12:04:57.043Z,0.78
2019-01-30T12:07:24.465Z,0.95
2019-01-30T12:09:51.797Z,1.05
2019-01-30T12:12:19.497Z,0.75
2019-01-30T12:14:46.897Z,0.78
2019-01-30T12:17:14.237Z,0.78
2019-01-30T12:19:41.567Z,0.53
2019-01-30T12:22:08.893Z,0.50
2019-01-30T12:24:36.244Z,0.72
2019-01-30T12:27:03.753Z,0.62
2019-01-30T12:29:31.084Z,0.70
2019-01-30T12:31:58.431Z,0.55
2019-01-30T12:34:28.379Z,0.80
2019-01-30T12:36:55.068Z,0.75
2019-01-30T12:39:22.512Z,0.50
2019-01-30T12:41:50.145Z,0.50
2019-01-30T12:44:17.500Z,0.60
2019-01-30T12:46:44.912Z,0.60
2019-01-30T12:49:12.530Z,0.50
2019-01-30T12:51:39.865Z,0.30
2019-01-30T12:54:07.294Z,1.00
2019-01-30T12:56:34.752Z,0.85
2019-01-30T12:59:02.405Z,0.50
2019-01-30T13:01:30.997Z,0.50
2019-01-30T13:03:58.455Z,0.60
2019-01-30T13:06:25.775Z,0.75
2019-01-30T13:08:53.083Z,0.90
2019-01-30T13:11:20.745Z,0.82
2019-01-30T13:13:48.133Z,0.98
2019-01-30T13:16:15.510Z,0.55
2019-01-30T13:18:42.814Z,0.80
2019-01-30T13:21:10.244Z,0.50
2019-01-30T13:23:37.652Z,0.70
2019-01-30T13:26:05.415Z,0.55
2019-01-30T13:28:32.873Z,1.17
2019-01-30T13:31:00.233Z,1.20
2019-01-30T13:33:27.679Z,1.25
2019-01-30T13:35:55.009Z,0.78
2019-01-30T13:38:22.368Z,0.98
2019-01-30T13:40:49.723Z,0.75
2019-01-30T13:43:17.174Z,0.70
2019-01-30T13:45:44.911Z,0.93
2019-01-30T13:48:14.498Z,1.20
2019-01-30T13:50:41.986Z,1.05
2019-01-30T13:53:09.470Z,1.20
2019-01-30T13:55:36.877Z,1.80
2019-01-30T13:58:04.526Z,1.10
2019-01-30T14:00:33.883Z,1.30
2019-01-30T14:03:01.651Z,1.00
2019-01-30T14:05:29.131Z,0.47
2019-01-30T14:07:57.302Z,1.00
2019-01-30T14:10:27.109Z,1.00
2019-01-30T14:12:53.965Z,1.22
2019-01-30T14:15:22.907Z,0.78
2019-01-30T14:17:50.326Z,1.10
2019-01-30T14:20:17.942Z,1.02
2019-01-30T14:22:45.400Z,1.15
2019-01-30T14:25:13.113Z,3.42
2019-01-30T14:27:40.508Z,3.62
2019-01-30T14:30:25.175Z,3.30
2019-01-30T14:32:52.904Z,4.75
2019-01-30T14:35:21.028Z,7.00
2019-01-30T14:37:48.466Z,3.25
2019-01-30T14:40:16.692Z,6.00
2019-01-30T14:42:44.133Z,11.10
2019-01-30T14:45:13.601Z,12.18
2019-01-30T14:47:41.018Z,5.55
2019-01-30T14:50:11.297Z,11.60
2019-01-30T14:52:38.817Z,9.55
2019-01-30T14:55:06.804Z,3.87
2019-01-30T14:57:34.231Z,1.98
2019-01-30T15:00:01.827Z,2.30
2019-01-30T15:02:29.303Z,1.45
2019-01-30T15:04:56.733Z,1.98
2019-01-30T15:07:29.153Z,1.02
2019-01-30T15:09:53.384Z,0.88
2019-01-30T15:12:20.770Z,0.65
2019-01-30T15:14:48.222Z,1.30
2019-01-30T15:17:15.748Z,1.10
2019-01-30T15:19:43.138Z,1.10
2019-01-30T15:22:10.584Z,0.88
2019-01-30T15:24:37.910Z,1.07
2019-01-30T15:27:05.364Z,1.20
2019-01-30T15:29:32.803Z,1.20
2019-01-30T15:32:00.352Z,1.20
2019-01-30T15:34:27.688Z,1.02
2019-01-30T15:36:56.514Z,0.80
2019-01-30T15:39:23.933Z,1.07
2019-01-30T15:41:51.388Z,1.20
2019-01-30T15:44:21.530Z,1.22
2019-01-30T15:46:48.952Z,0.95
2019-01-30T15:49:16.307Z,0.85
2019-01-30T15:51:43.742Z,1.02
2019-01-30T15:54:11.200Z,0.82
2019-01-30T15:56:38.913Z,1.37
2019-01-30T15:59:09.439Z,1.00
2019-01-30T16:01:40.158Z,1.20
2019-01-30T16:04:07.530Z,2.40
2019-01-30T16:06:37.747Z,1.30
2019-01-30T16:09:07.438Z,0.90
2019-01-30T16:11:34.874Z,1.10
2019-01-30T16:14:02.717Z,1.05
2019-01-30T16:16:30.070Z,1.17
2019-01-30T16:18:57.614Z,1.30
2019-01-30T16:21:25.016Z,1.17
2019-01-30T16:23:52.334Z,1.10
2019-01-30T16:26:19.692Z,1.00
2019-01-30T16:28:47.143Z,1.72
2019-01-30T16:31:14.901Z,1.10
2019-01-30T16:33:42.454Z,1.47
2019-01-30T16:36:12.346Z,1.07
2019-01-30T16:38:39.665Z,1.27
2019-01-30T16:41:07.114Z,1.20
2019-01-30T16:43:34.557Z,1.30
2019-01-30T16:46:01.937Z,1.20
2019-01-30T16:48:31.032Z,1.40
2019-01-30T16:50:58.652Z,1.80
2019-01-30T16:53:26.096Z,1.12
2019-01-30T16:55:53.346Z,1.70
2019-01-30T16:58:20.706Z,1.95
2019-01-30T17:00:48.502Z,2.67
2019-01-30T17:03:16.130Z,1.90
2019-01-30T17:05:43.576Z,2.42
2019-01-30T17:08:10.920Z,2.25
2019-01-30T17:10:39.214Z,2.05
2019-01-30T17:13:06.596Z,2.50
2019-01-30T17:15:34.194Z,2.52
2019-01-30T17:18:01.527Z,2.75
2019-01-30T17:20:31.041Z,1.82
2019-01-30T17:22:58.609Z,2.42
2019-01-30T17:25:26.072Z,1.52
2019-01-30T17:27:53.432Z,1.47
2019-01-30T17:30:29.913Z,2.72
2019-01-30T17:32:57.313Z,1.80
2019-01-30T17:35:24.999Z,2.77
2019-01-30T17:37:56.837Z,3.65
2019-01-30T17:40:24.421Z,2.62
2019-01-30T17:42:51.897Z,1.52
2019-01-30T17:45:19.415Z,2.20
2019-01-30T17:47:47.498Z,2.12
2019-01-30T17:50:17.723Z,1.90
2019-01-30T17:52:45.179Z,1.50
2019-01-30T17:55:12.683Z,2.00
2019-01-30T17:57:40.303Z,1.98
2019-01-30T18:00:19.565Z,2.50
2019-01-30T18:02:46.953Z,2.70
2019-01-30T18:05:14.839Z,2.15
2019-01-30T18:07:42.409Z,1.87
2019-01-30T18:10:10.017Z,2.37
2019-01-30T18:12:37.386Z,2.75
2019-01-30T18:15:05.917Z,3.25
2019-01-30T18:17:33.348Z,3.55
2019-01-30T18:20:00.789Z,3.52
2019-01-30T18:22:28.219Z,3.80
2019-01-30T18:24:55.665Z,2.17
2019-01-30T18:27:23.135Z,2.87
2019-01-30T18:29:50.717Z,2.05
2019-01-30T18:32:18.191Z,2.15
2019-01-30T18:34:45.674Z,2.00
2019-01-30T18:37:13.865Z,2.40
2019-01-30T18:39:41.814Z,2.45
2019-01-30T18:42:09.808Z,2.25
2019-01-30T18:44:37.335Z,3.30
2019-01-30T18:47:04.874Z,4.05
2019-01-30T18:49:32.489Z,3.17
2019-01-30T18:51:59.997Z,2.10
2019-01-30T18:54:27.513Z,2.37
2019-01-30T18:56:57.386Z,2.50
2019-01-30T18:59:24.857Z,1.95
2019-01-30T19:01:52.651Z,2.52
2019-01-30T19:04:21.946Z,2.27
2019-01-30T19:06:52.501Z,2.85
2019-01-30T19:09:18.821Z,3.55
2019-01-30T19:11:46.251Z,2.70
2019-01-30T19:14:14.104Z,2.87
2019-01-30T19:16:41.616Z,2.60
2019-01-30T19:19:09.117Z,3.58
2019-01-30T19:21:38.881Z,2.65
2019-01-30T19:24:06.246Z,2.00
2019-01-30T19:26:33.756Z,2.92
2019-01-30T19:29:01.198Z,1.92
2019-01-30T19:31:28.835Z,1.90
2019-01-30T19:33:56.307Z,5.00
2019-01-30T19:36:23.699Z,2.75
2019-01-30T19:38:51.153Z,3.72
2019-01-30T19:41:18.681Z,3.12
2019-01-30T19:43:46.111Z,3.17
2019-01-30T19:46:14.008Z,2.85
2019-01-30T19:48:41.430Z,2.60
2019-01-30T19:51:08.926Z,2.25
2019-01-30T19:53:36.446Z,3.00
2019-01-30T19:56:04.312Z,2.55
2019-01-30T19:58:31.802Z,4.40
2019-01-30T20:00:59.723Z,5.33
2019-01-30T20:03:31.325Z,3.85
2019-01-30T20:05:59.096Z,2.95
2019-01-30T20:08:26.823Z,2.58
2019-01-30T20:10:54.809Z,2.45
2019-01-30T20:13:22.432Z,2.20
2019-01-30T20:15:50.278Z,2.30
2019-01-30T20:18:18.105Z,3.67
2019-01-30T20:20:45.763Z,8.90
2019-01-30T20:23:15.201Z,2.98
2019-01-30T20:25:43.903Z,3.92
2019-01-30T20:28:12.149Z,3.40
2019-01-30T20:30:39.708Z,3.17
2019-01-30T20:33:07.587Z,3.25
2019-01-30T20:35:35.177Z,3.75
2019-01-30T20:38:03.140Z,3.25
2019-01-30T20:40:30.718Z,2.90
2019-01-30T20:42:58.233Z,3.20
2019-01-30T20:45:33.452Z,3.77
2019-01-30T20:47:55.790Z,3.90
2019-01-30T20:50:25.271Z,4.17
2019-01-30T20:52:52.776Z,3.00
2019-01-30T20:55:20.445Z,3.47
2019-01-30T20:57:48.327Z,4.03
2019-01-30T21:00:18.625Z,3.55
2019-01-30T21:02:46.269Z,5.87
2019-01-30T21:05:13.931Z,4.72
2019-01-30T21:07:41.459Z,3.87
2019-01-30T21:10:11.820Z,3.42
2019-01-30T21:12:39.487Z,4.20
2019-01-30T21:15:09.097Z,4.53
2019-01-30T21:17:36.631Z,4.15
2019-01-30T21:20:05.671Z,3.60
2019-01-30T21:22:33.265Z,3.70
2019-01-30T21:25:00.813Z,3.45
2019-01-30T21:27:28.298Z,3.65
2019-01-30T21:29:56.018Z,3.80
2019-01-30T21:32:23.604Z,4.45
2019-01-30T21:34:51.398Z,19.10
2019-01-30T21:37:20.528Z,35.58
2019-01-30T21:39:48.010Z,17.25
2019-01-30T21:42:15.504Z,30.20
2019-01-30T21:44:42.915Z,31.85
2019-01-30T21:47:10.361Z,10.65
2019-01-30T21:49:37.744Z,6.92
2019-01-30T21:52:05.212Z,5.70
2019-01-30T21:54:32.628Z,5.10
2019-01-30T21:56:59.978Z,4.62
2019-01-30T21:59:27.430Z,4.45
2019-01-30T22:01:54.896Z,4.55
2019-01-30T22:04:22.659Z,5.83
2019-01-30T22:06:49.974Z,4.22
2019-01-30T22:09:17.386Z,3.70
2019-01-30T22:11:45.243Z,3.60
2019-01-30T22:14:12.680Z,3.85
2019-01-30T22:16:40.121Z,2.65
2019-01-30T22:19:07.527Z,2.67
2019-01-30T22:21:35.288Z,2.60
2019-01-30T22:24:05.585Z,3.10
2019-01-30T22:26:32.455Z,3.55
2019-01-30T22:29:02.615Z,3.90
2019-01-30T22:31:29.118Z,3.60
2019-01-30T22:33:56.468Z,4.05
2019-01-30T22:36:23.907Z,3.05
2019-01-30T22:38:51.350Z,2.90
2019-01-30T22:41:18.787Z,2.80
2019-01-30T22:43:46.073Z,4.03
2019-01-30T22:46:13.477Z,3.50
2019-01-30T22:48:40.785Z,2.65
2019-01-30T22:51:08.072Z,2.70
2019-01-30T22:53:35.488Z,2.40
2019-01-30T22:56:03.218Z,2.65
2019-01-30T22:58:30.731Z,2.50
2019-01-30T23:01:19.946Z,2.20
2019-01-30T23:04:17.890Z,2.20
2019-01-30T23:07:10.313Z,2.65
2019-01-30T23:10:15.150Z,2.12
2019-01-30T23:13:30.500Z,2.50
2019-01-30T23:16:41.417Z,2.27
2019-01-30T23:19:49.818Z,3.30
2019-01-30T23:23:23.103Z,2.90
2019-01-30T23:26:13.104Z,2.60
2019-01-30T23:29:18.734Z,2.22
2019-01-30T23:32:12.220Z,3.55
2019-01-30T23:35:39.562Z,3.65
2019-01-30T23:38:40.203Z,4.75
2019-01-30T23:41:40.138Z,4.15
2019-01-30T23:44:18.842Z,3.50
2019-01-30T23:47:15.593Z,3.98
2019-01-30T23:50:18.176Z,4.10
2019-01-30T23:53:42.565Z,3.75
2019-01-30T23:56:32.626Z,3.60
2019-01-30T23:59:44.990Z,4.20
